Time;durP1;ratioP1;P1;durP2;ratioP2;P2;SDS_P1;SDS_P2;PMS_P1;PMS_P2;Temp;Humidity;BMP_temperature;BMP_pressure;BME280_temperature;BME280_humidity;BME280_pressure;Samples;Min_cycle;Max_cycle;Signal;HPM_P1;HPM_P2
2022/09/27 00:01:33;;;;;;;1.20;1.10;;;12.60;97.30;;;;;;5049878;28;20186;-92
2022/09/27 00:04:01;;;;;;;1.10;1.00;;;12.60;97.30;;;;;;5053755;28;20234;-91
2022/09/27 00:06:30;;;;;;;1.73;1.13;;;12.60;97.30;;;;;;5051337;28;20313;-90
2022/09/27 00:08:55;;;;;;;1.57;1.30;;;12.60;97.30;;;;;;5049302;28;20453;-91
2022/09/27 00:11:34;;;;;;;1.30;1.20;;;12.50;97.30;;;;;;5053771;28;20423;-90
2022/09/27 00:14:00;;;;;;;0.93;0.87;;;12.50;97.30;;;;;;5053352;28;20280;-90
2022/09/27 00:16:32;;;;;;;1.27;1.17;;;12.50;97.30;;;;;;5053250;28;20980;-88
2022/09/27 00:19:02;;;;;;;1.07;0.97;;;12.50;97.30;;;;;;5052910;28;20913;-86
2022/09/27 00:21:30;;;;;;;1.20;1.10;;;12.50;97.30;;;;;;5049580;28;20452;-85
2022/09/27 00:24:05;;;;;;;1.00;0.90;;;12.50;97.30;;;;;;5050540;28;20480;-90
2022/09/27 00:26:37;;;;;;;1.20;1.17;;;12.50;97.30;;;;;;5047333;28;20831;-86
2022/09/27 00:29:03;;;;;;;1.27;0.90;;;12.50;97.30;;;;;;5051862;28;20940;-91
2022/09/27 00:31:32;;;;;;;1.37;1.30;;;12.50;97.30;;;;;;5050105;28;20430;-87
2022/09/27 00:34:01;;;;;;;1.13;1.03;;;12.50;97.30;;;;;;5032325;28;20449;-88
2022/09/27 00:36:28;;;;;;;1.30;1.20;;;12.50;97.30;;;;;;5034404;28;20446;-89
2022/09/27 00:39:00;;;;;;;1.00;0.90;;;12.50;97.30;;;;;;5050175;28;20443;-88
2022/09/27 00:41:32;;;;;;;1.23;1.10;;;12.40;97.30;;;;;;5032626;28;21216;-89
2022/09/27 00:44:24;;;;;;;1.10;1.00;;;12.40;97.30;;;;;;5049348;28;20426;-90
2022/09/27 00:47:13;;;;;;;1.20;1.10;;;12.40;97.30;;;;;;5019211;28;21211;-90
2022/09/27 00:49:50;;;;;;;1.00;0.90;;;12.40;97.30;;;;;;5052592;28;20450;-91
2022/09/27 00:52:20;;;;;;;0.80;0.80;;;12.30;97.30;;;;;;5052883;28;20421;-91
2022/09/27 00:54:53;;;;;;;1.93;1.67;;;12.30;97.30;;;;;;5054713;28;20426;-93
2022/09/27 00:57:21;;;;;;;1.20;1.10;;;12.30;97.30;;;;;;5055243;28;20427;-90
2022/09/27 00:59:56;;;;;;;1.50;1.40;;;12.30;97.30;;;;;;5045234;28;20415;-91
2022/09/27 01:02:22;;;;;;;0.70;0.70;;;12.30;97.30;;;;;;5041013;28;20421;-93
2022/09/27 01:04:48;;;;;;;0.97;0.93;;;12.30;97.30;;;;;;5056361;28;20466;-94
2022/09/27 01:07:18;;;;;;;0.90;0.90;;;12.30;97.30;;;;;;5039165;28;20941;-93
2022/09/27 01:09:46;;;;;;;1.20;1.10;;;12.30;97.30;;;;;;5036354;28;20524;-91
2022/09/27 01:12:33;;;;;;;1.43;1.40;;;12.30;97.30;;;;;;5053366;28;20425;-92
2022/09/27 01:15:45;;;;;;;1.10;1.00;;;12.20;97.30;;;;;;5054261;28;20437;-90
2022/09/27 01:18:27;;;;;;;1.20;1.10;;;12.20;97.30;;;;;;5042463;28;20418;-89
2022/09/27 01:21:22;;;;;;;0.97;0.93;;;12.20;97.30;;;;;;5048762;28;20429;-90
2022/09/27 01:24:07;;;;;;;1.10;1.00;;;12.20;97.30;;;;;;5039903;28;20420;-90
2022/09/27 01:27:04;;;;;;;5.03;1.63;;;12.10;97.30;;;;;;5053458;28;20516;-90
2022/09/27 01:30:17;;;;;;;1.20;1.10;;;12.10;97.30;;;;;;5003981;28;20497;-91
2022/09/27 01:33:03;;;;;;;4.30;1.30;;;12.10;97.30;;;;;;5042387;28;20445;-90
2022/09/27 01:35:53;;;;;;;1.77;1.07;;;12.10;97.30;;;;;;5052081;28;20434;-90
2022/09/27 01:38:53;;;;;;;1.40;1.37;;;12.00;97.30;;;;;;5045803;28;20438;-90
2022/09/27 01:41:26;;;;;;;1.30;0.90;;;12.00;97.30;;;;;;5040951;28;20422;-90
2022/09/27 01:44:09;;;;;;;0.90;0.80;;;12.00;97.30;;;;;;5051791;28;20422;-89
2022/09/27 01:46:40;;;;;;;1.23;1.13;;;12.00;97.30;;;;;;5051856;28;20480;-90
2022/09/27 01:49:41;;;;;;;1.00;0.90;;;12.10;97.30;;;;;;5052159;28;20508;-90
2022/09/27 01:52:09;;;;;;;1.20;1.10;;;12.10;97.30;;;;;;5051839;28;20473;-90
2022/09/27 01:54:42;;;;;;;1.40;1.30;;;12.10;97.30;;;;;;5051836;28;20419;-91
2022/09/27 01:57:10;;;;;;;1.20;1.10;;;12.10;97.30;;;;;;5044049;28;20422;-88
2022/09/27 01:59:43;;;;;;;1.33;1.10;;;12.10;97.30;;;;;;5051689;28;20418;-90
2022/09/27 02:02:11;;;;;;;1.20;1.10;;;12.10;97.30;;;;;;5052851;28;20475;-88
2022/09/27 02:04:40;;;;;;;2.77;2.00;;;12.10;97.30;;;;;;5051223;28;20418;-90
2022/09/27 02:07:22;;;;;;;1.50;1.40;;;12.10;97.30;;;;;;5038094;28;20423;-90
2022/09/27 02:10:10;;;;;;;1.00;1.00;;;12.10;97.30;;;;;;5042393;28;20422;-91
2022/09/27 02:12:43;;;;;;;0.90;0.90;;;12.10;97.30;;;;;;5067063;28;20430;-91
2022/09/27 02:15:12;;;;;;;1.00;0.93;;;12.10;97.30;;;;;;5052493;28;20473;-89
2022/09/27 02:17:50;;;;;;;2.73;1.37;;;12.10;97.30;;;;;;5051141;28;20471;-90
2022/09/27 02:20:26;;;;;;;1.37;1.10;;;12.10;97.30;;;;;;5038237;28;20938;-89
2022/09/27 02:23:07;;;;;;;1.10;1.00;;;12.10;97.30;;;;;;5051495;28;20430;-90
2022/09/27 02:25:59;;;;;;;1.10;1.00;;;12.10;97.30;;;;;;5050194;28;20523;-91
2022/09/27 02:28:49;;;;;;;1.10;1.10;;;12.10;97.30;;;;;;5051222;28;20433;-90
2022/09/27 02:31:15;;;;;;;1.33;1.00;;;12.10;97.30;;;;;;5043220;28;20422;-90
2022/09/27 02:33:55;;;;;;;1.03;1.00;;;12.10;97.30;;;;;;5050733;28;20990;-90
2022/09/27 02:36:21;;;;;;;1.00;0.90;;;12.10;97.30;;;;;;5052117;28;20203;-90
2022/09/27 02:38:47;;;;;;;1.13;1.03;;;12.10;97.30;;;;;;5051116;28;21098;-91
2022/09/27 02:41:18;;;;;;;1.00;0.90;;;12.10;97.30;;;;;;5050883;28;20449;-91
2022/09/27 02:43:47;;;;;;;1.00;0.90;;;12.10;97.30;;;;;;5051366;28;20196;-91
2022/09/27 02:46:45;;;;;;;1.20;1.10;;;12.10;97.30;;;;;;5051132;28;20492;-91
2022/09/27 02:49:50;;;;;;;1.10;1.00;;;12.10;97.30;;;;;;5051690;28;20466;-90
2022/09/27 02:52:33;;;;;;;1.23;1.13;;;12.10;97.30;;;;;;4995632;28;20456;-90
2022/09/27 02:55:37;;;;;;;2.17;1.10;;;12.00;97.30;;;;;;5038597;28;20438;-91
2022/09/27 02:58:09;;;;;;;1.20;1.10;;;12.00;97.30;;;;;;5051491;28;20433;-90
2022/09/27 03:00:46;;;;;;;1.30;1.20;;;12.00;97.30;;;;;;5051999;28;21013;-91
2022/09/27 03:03:25;;;;;;;1.17;1.13;;;12.00;97.30;;;;;;5056545;28;20425;-92
2022/09/27 03:05:58;;;;;;;1.53;1.13;;;12.00;97.30;;;;;;5051308;28;20878;-91
2022/09/27 03:08:23;;;;;;;1.20;1.13;;;12.00;97.30;;;;;;5051584;28;20563;-91
2022/09/27 03:10:49;;;;;;;1.10;1.00;;;12.00;97.30;;;;;;5048256;28;21221;-91
2022/09/27 03:13:15;;;;;;;1.27;1.17;;;12.00;97.30;;;;;;5032072;28;20433;-91
2022/09/27 03:15:40;;;;;;;1.10;1.00;;;12.00;97.30;;;;;;5049163;28;20573;-91
2022/09/27 03:18:06;;;;;;;1.27;1.17;;;12.00;97.30;;;;;;5050719;28;20309;-90
2022/09/27 03:20:31;;;;;;;1.10;0.90;;;11.90;97.30;;;;;;5051862;28;20788;-91
2022/09/27 03:22:57;;;;;;;1.40;1.23;;;11.90;97.30;;;;;;5051066;28;20266;-92
2022/09/27 03:25:22;;;;;;;1.10;1.00;;;11.90;97.30;;;;;;5051092;28;20465;-91
2022/09/27 03:27:48;;;;;;;1.10;1.00;;;11.90;97.30;;;;;;5050650;28;20183;-91
2022/09/27 03:30:14;;;;;;;1.00;0.90;;;11.80;97.30;;;;;;5051374;28;20422;-92
2022/09/27 03:32:44;;;;;;;1.10;1.00;;;11.80;97.30;;;;;;5041174;28;20176;-91
2022/09/27 03:35:11;;;;;;;1.10;1.00;;;11.80;97.30;;;;;;5062795;28;20969;-91
2022/09/27 03:37:37;;;;;;;2.50;1.23;;;11.80;97.30;;;;;;5045305;28;20426;-92
2022/09/27 03:40:03;;;;;;;1.10;1.00;;;11.80;97.30;;;;;;5054694;28;20429;-91
2022/09/27 03:42:29;;;;;;;1.10;1.00;;;11.80;97.30;;;;;;5055695;28;20422;-91
2022/09/27 03:44:54;;;;;;;1.10;1.00;;;11.80;97.30;;;;;;5054970;28;20544;-91
2022/09/27 03:47:21;;;;;;;1.53;1.47;;;11.80;97.30;;;;;;5055287;28;20215;-91
2022/09/27 03:49:46;;;;;;;1.20;1.10;;;11.80;97.30;;;;;;5048942;28;20275;-90
2022/09/27 03:52:12;;;;;;;1.20;1.10;;;11.70;97.30;;;;;;5052207;28;20885;-91
2022/09/27 03:54:38;;;;;;;1.10;1.00;;;11.70;97.30;;;;;;5054993;28;20208;-92
2022/09/27 03:57:04;;;;;;;1.10;1.00;;;11.70;97.30;;;;;;5055570;28;20444;-90
2022/09/27 03:59:30;;;;;;;1.00;0.90;;;11.60;97.30;;;;;;5050893;28;20674;-91
2022/09/27 04:01:55;;;;;;;1.00;0.90;;;11.60;97.30;;;;;;5042177;28;20407;-91
2022/09/27 04:04:20;;;;;;;1.13;1.03;;;11.60;97.30;;;;;;5053350;28;20669;-91
2022/09/27 04:06:48;;;;;;;1.37;1.27;;;11.50;97.30;;;;;;5041701;28;20220;-90
2022/09/27 04:09:13;;;;;;;1.20;1.10;;;11.50;97.30;;;;;;5052576;28;20191;-93
2022/09/27 04:11:39;;;;;;;2.10;1.40;;;11.50;97.30;;;;;;5042805;28;20407;-89
2022/09/27 04:14:04;;;;;;;0.90;0.80;;;11.40;97.30;;;;;;5047351;28;20275;-90
2022/09/27 04:16:31;;;;;;;1.73;1.47;;;11.40;97.30;;;;;;5048752;28;20672;-89
2022/09/27 04:18:56;;;;;;;1.20;1.10;;;11.40;97.30;;;;;;5048504;28;20206;-89
2022/09/27 04:21:22;;;;;;;1.20;1.10;;;11.30;97.30;;;;;;5053742;28;20917;-90
2022/09/27 04:23:47;;;;;;;0.90;0.90;;;11.30;97.30;;;;;;5053510;28;20660;-89
2022/09/27 04:26:13;;;;;;;1.03;0.93;;;11.30;97.30;;;;;;5053088;28;20249;-89
2022/09/27 04:28:38;;;;;;;1.60;1.30;;;11.20;97.30;;;;;;5050541;28;20200;-89
2022/09/27 04:31:07;;;;;;;1.20;1.10;;;11.20;97.30;;;;;;5044463;28;20245;-90
2022/09/27 04:33:32;;;;;;;1.00;0.90;;;11.20;97.30;;;;;;5052694;28;20180;-89
2022/09/27 04:38:42;;;;;;;1.10;1.00;;;11.20;97.30;;;;;;5054433;28;20229;-89
2022/09/27 04:41:09;;;;;;;1.13;1.10;;;11.20;97.30;;;;;;5052556;28;20418;-92
2022/09/27 04:43:35;;;;;;;1.70;1.60;;;11.20;97.30;;;;;;5050006;28;20266;-90
2022/09/27 04:46:00;;;;;;;1.33;1.30;;;11.10;97.30;;;;;;5043348;28;20557;-90
2022/09/27 04:48:26;;;;;;;1.30;1.20;;;11.10;97.30;;;;;;5052463;28;20231;-93
2022/09/27 04:50:56;;;;;;;1.40;1.30;;;11.10;97.30;;;;;;5042050;28;20594;-90
2022/09/27 04:53:21;;;;;;;1.20;1.10;;;11.10;97.30;;;;;;5047325;28;20182;-91
2022/09/27 04:55:48;;;;;;;0.90;0.80;;;11.10;97.30;;;;;;5041042;28;20443;-90
2022/09/27 04:58:14;;;;;;;1.10;1.00;;;11.10;97.30;;;;;;5041073;28;20192;-90
2022/09/27 05:00:56;;;;;;;1.23;1.13;;;11.10;97.30;;;;;;5052568;28;20445;-90
2022/09/27 05:03:22;;;;;;;0.93;0.83;;;11.10;97.30;;;;;;5059599;28;20184;-90
2022/09/27 05:05:48;;;;;;;1.10;1.00;;;11.10;97.30;;;;;;5046559;28;20519;-90
2022/09/27 05:08:13;;;;;;;1.20;1.10;;;11.10;97.30;;;;;;5041373;28;20260;-90
2022/09/27 05:10:39;;;;;;;1.30;1.20;;;11.10;97.30;;;;;;5043404;28;20192;-91
2022/09/27 05:13:05;;;;;;;0.80;0.80;;;11.10;97.30;;;;;;5045311;28;20176;-90
2022/09/27 05:15:34;;;;;;;1.47;1.37;;;11.10;97.30;;;;;;5046219;28;20203;-90
2022/09/27 05:18:01;;;;;;;1.60;1.20;;;11.10;97.30;;;;;;5050137;28;20425;-91
2022/09/27 05:20:27;;;;;;;1.07;0.97;;;11.10;97.30;;;;;;5046608;28;20509;-89
2022/09/27 05:22:52;;;;;;;1.00;0.90;;;11.00;97.30;;;;;;5051310;28;20876;-90
2022/09/27 05:25:18;;;;;;;1.20;1.10;;;11.00;97.30;;;;;;5049435;28;20215;-90
2022/09/27 05:27:44;;;;;;;1.20;1.10;;;11.00;97.30;;;;;;5047331;28;20627;-90
2022/09/27 05:30:10;;;;;;;1.10;1.00;;;11.00;97.30;;;;;;5047968;28;20212;-89
2022/09/27 05:32:41;;;;;;;5.63;1.30;;;11.00;97.30;;;;;;5049879;28;20176;-90
2022/09/27 05:35:06;;;;;;;1.30;1.03;;;11.00;97.30;;;;;;5039977;28;20446;-91
2022/09/27 05:37:33;;;;;;;1.10;1.00;;;11.00;97.30;;;;;;5044336;28;20804;-91
2022/09/27 05:39:58;;;;;;;0.90;0.80;;;11.00;97.30;;;;;;5048616;28;20275;-90
2022/09/27 05:42:24;;;;;;;1.20;1.10;;;11.00;97.30;;;;;;5049474;28;20472;-90
2022/09/27 05:44:49;;;;;;;1.10;1.00;;;11.00;97.30;;;;;;5049301;28;20559;-91
2022/09/27 05:47:15;;;;;;;1.17;1.07;;;11.10;97.30;;;;;;5044771;28;20206;-91
2022/09/27 05:49:42;;;;;;;1.37;1.27;;;11.10;97.30;;;;;;5045913;28;20635;-90
2022/09/27 05:52:08;;;;;;;0.90;0.80;;;11.10;97.30;;;;;;5046774;28;20175;-91
2022/09/27 05:54:33;;;;;;;0.87;0.80;;;11.10;97.30;;;;;;5048405;28;20432;-91
2022/09/27 05:57:02;;;;;;;2.17;1.23;;;11.10;97.30;;;;;;5052067;28;20203;-91
2022/09/27 05:59:28;;;;;;;1.30;1.20;;;11.10;97.30;;;;;;5046510;28;20196;-91
2022/09/27 06:01:54;;;;;;;1.37;1.17;;;11.10;97.30;;;;;;5046023;28;20422;-90
2022/09/27 06:04:22;;;;;;;1.10;1.00;;;11.10;97.30;;;;;;5052166;28;20274;-90
2022/09/27 06:06:48;;;;;;;1.43;1.10;;;11.20;97.30;;;;;;5050261;28;20538;-90
2022/09/27 06:09:15;;;;;;;1.03;1.00;;;11.20;97.30;;;;;;5047424;28;20458;-91
2022/09/27 06:11:44;;;;;;;1.20;1.10;;;11.20;97.30;;;;;;5052285;28;20239;-91
2022/09/27 06:14:10;;;;;;;1.10;1.00;;;11.20;97.30;;;;;;5051069;28;20418;-92
2022/09/27 06:16:35;;;;;;;1.13;1.03;;;11.20;97.30;;;;;;5047282;28;20497;-90
2022/09/27 06:19:02;;;;;;;2.03;1.70;;;11.20;97.30;;;;;;5051061;28;20430;-94
2022/09/27 06:21:30;;;;;;;1.13;1.03;;;11.20;97.30;;;;;;5048034;28;20180;-91
2022/09/27 06:23:58;;;;;;;1.10;1.00;;;11.20;97.30;;;;;;5049159;28;20773;-90
2022/09/27 06:26:26;;;;;;;1.00;0.90;;;11.30;97.30;;;;;;5039660;28;20466;-90
2022/09/27 06:28:51;;;;;;;1.63;1.20;;;11.30;97.30;;;;;;5045255;28;20437;-91
2022/09/27 06:31:17;;;;;;;1.10;1.00;;;11.30;97.30;;;;;;5048810;28;20414;-93
2022/09/27 06:33:44;;;;;;;3.83;1.57;;;11.30;97.30;;;;;;5049139;28;20266;-92
2022/09/27 06:36:09;;;;;;;1.20;1.10;;;11.30;97.30;;;;;;5048549;28;20438;-91
2022/09/27 06:38:35;;;;;;;1.30;1.20;;;11.30;97.30;;;;;;5051929;28;20955;-92
2022/09/27 06:41:06;;;;;;;1.07;1.03;;;11.30;97.30;;;;;;5049740;28;20181;-91
2022/09/27 06:43:33;;;;;;;1.00;1.00;;;11.30;97.30;;;;;;5053119;28;20179;-93
2022/09/27 06:46:04;;;;;;;1.00;0.90;;;11.30;97.30;;;;;;5049557;28;20926;-93
2022/09/27 06:48:31;;;;;;;0.87;0.80;;;11.30;97.30;;;;;;5048414;28;20481;-94
2022/09/27 06:50:57;;;;;;;1.07;0.97;;;11.30;97.30;;;;;;5052290;28;20881;-91
2022/09/27 06:53:27;;;;;;;1.87;1.70;;;11.30;97.30;;;;;;5046733;28;20424;-90
2022/09/27 06:55:56;;;;;;;1.10;1.00;;;11.30;97.30;;;;;;5043854;28;20196;-91
2022/09/27 07:01:06;;;;;;;2.60;2.23;;;11.30;97.30;;;;;;5053193;28;20426;-90
2022/09/27 07:03:33;;;;;;;4.17;1.20;;;11.30;97.30;;;;;;5046927;28;20937;-90
2022/09/27 07:06:03;;;;;;;1.20;1.10;;;11.30;97.30;;;;;;5044006;28;20207;-90
2022/09/27 07:08:34;;;;;;;3.03;1.53;;;11.40;97.30;;;;;;5042923;28;20498;-91
2022/09/27 07:11:03;;;;;;;1.43;1.33;;;11.40;97.30;;;;;;5045038;28;20418;-90
2022/09/27 07:13:33;;;;;;;1.27;1.17;;;11.40;97.30;;;;;;5042345;28;20450;-92
2022/09/27 07:16:01;;;;;;;1.00;0.90;;;11.50;97.30;;;;;;5054191;28;20441;-88
2022/09/27 07:18:27;;;;;;;1.10;1.00;;;11.50;97.30;;;;;;5053198;28;20423;-91
2022/09/27 07:20:54;;;;;;;8.30;1.83;;;11.50;97.30;;;;;;5050383;28;20450;-91
2022/09/27 07:23:20;;;;;;;1.30;1.20;;;11.50;97.30;;;;;;5051256;28;20425;-91
2022/09/27 07:25:46;;;;;;;1.20;1.10;;;11.50;97.30;;;;;;5047892;28;20479;-91
2022/09/27 07:28:17;;;;;;;1.00;0.90;;;11.60;97.30;;;;;;5045660;28;21062;-92
2022/09/27 07:30:43;;;;;;;1.17;1.07;;;11.60;97.30;;;;;;5051074;28;20434;-91
2022/09/27 07:33:10;;;;;;;1.40;1.33;;;11.60;97.30;;;;;;5049072;28;20410;-92
2022/09/27 07:35:42;;;;;;;1.00;0.87;;;11.60;97.30;;;;;;5060351;28;21292;-92
2022/09/27 07:41:21;;;;;;;1.10;1.00;;;11.60;97.30;;;;;;5031418;28;20897;-91
2022/09/27 07:43:47;;;;;;;1.13;1.03;;;11.70;97.30;;;;;;5055922;28;20944;-91
2022/09/27 07:46:13;;;;;;;1.07;1.00;;;11.70;97.30;;;;;;5049691;28;20471;-90
2022/09/27 07:48:42;;;;;;;1.00;0.90;;;11.70;97.30;;;;;;5048900;28;20250;-90
2022/09/27 07:51:09;;;;;;;1.20;1.10;;;11.70;97.30;;;;;;5047581;28;20180;-91
2022/09/27 07:53:35;;;;;;;1.10;1.00;;;11.70;97.30;;;;;;5047704;28;20454;-90
2022/09/27 07:56:00;;;;;;;1.10;1.00;;;11.80;97.30;;;;;;5049501;28;20462;-91
2022/09/27 07:58:26;;;;;;;1.07;0.97;;;11.80;97.30;;;;;;5052341;28;20542;-91
2022/09/27 08:00:53;;;;;;;1.10;1.03;;;11.80;97.30;;;;;;5055103;28;20637;-91
2022/09/27 08:03:18;;;;;;;2.70;2.40;;;11.80;97.30;;;;;;5050130;28;20414;-91
2022/09/27 08:05:46;;;;;;;1.20;1.10;;;11.80;97.30;;;;;;5052762;28;20466;-91
2022/09/27 08:08:13;;;;;;;1.50;1.40;;;11.80;97.30;;;;;;5055749;28;20521;-91
2022/09/27 08:10:42;;;;;;;1.83;1.67;;;11.80;97.30;;;;;;5055529;28;20410;-93
2022/09/27 08:13:08;;;;;;;4.97;2.60;;;11.90;97.30;;;;;;5052617;28;20785;-88
2022/09/27 08:15:37;;;;;;;1.43;1.33;;;11.80;97.30;;;;;;5059014;28;20482;-89
2022/09/27 08:18:04;;;;;;;1.10;1.00;;;11.80;97.30;;;;;;5059365;28;20434;-90
2022/09/27 08:20:30;;;;;;;1.00;0.90;;;11.90;97.30;;;;;;5070133;28;20552;-92
2022/09/27 08:22:56;;;;;;;1.10;1.00;;;11.90;97.30;;;;;;5059855;28;20512;-90
2022/09/27 08:25:23;;;;;;;1.10;1.10;;;11.90;97.30;;;;;;5051836;28;20226;-88
2022/09/27 08:27:56;;;;;;;1.00;0.90;;;11.90;97.30;;;;;;5072206;28;20533;-91
2022/09/27 08:30:22;;;;;;;1.07;0.97;;;12.00;97.30;;;;;;5070868;28;20420;-90
2022/09/27 08:32:47;;;;;;;1.10;1.00;;;12.00;97.30;;;;;;5072007;28;20409;-91
2022/09/27 08:35:14;;;;;;;0.77;0.73;;;12.00;97.30;;;;;;5034223;28;20250;-90
2022/09/27 08:37:39;;;;;;;1.00;0.90;;;12.00;97.30;;;;;;5043095;28;20226;-90
2022/09/27 08:40:06;;;;;;;0.93;0.87;;;12.10;97.30;;;;;;5043147;28;20414;-90
2022/09/27 08:43:20;;;;;;;1.10;1.00;;;12.10;97.30;;;;;;5043802;28;20563;-89
2022/09/27 08:46:09;;;;;;;1.00;0.90;;;12.10;97.30;;;;;;5018520;28;20814;-89
2022/09/27 08:48:37;;;;;;;1.10;1.00;;;12.00;97.30;;;;;;5043560;28;20980;-90
2022/09/27 08:51:05;;;;;;;1.57;1.47;;;11.90;97.30;;;;;;5044951;28;20775;-89
2022/09/27 08:53:47;;;;;;;1.00;0.90;;;11.90;97.30;;;;;;5041392;28;20418;-89
2022/09/27 08:56:14;;;;;;;2.40;1.50;;;11.80;97.30;;;;;;5041743;28;20501;-89
2022/09/27 08:58:52;;;;;;;1.00;0.90;;;11.80;97.30;;;;;;5042103;28;20514;-89
2022/09/27 09:01:18;;;;;;;1.00;0.90;;;11.80;97.30;;;;;;5059196;28;20411;-89
2022/09/27 09:03:54;;;;;;;1.20;1.10;;;11.70;97.30;;;;;;5041313;28;20913;-88
2022/09/27 09:06:28;;;;;;;0.90;0.90;;;11.60;97.30;;;;;;5041825;28;20902;-88
2022/09/27 09:09:02;;;;;;;1.10;1.00;;;11.50;97.30;;;;;;5038890;28;20469;-89
2022/09/27 09:14:56;;;;;;;1.10;1.00;;;11.40;97.30;;;;;;5040629;28;20472;-90
2022/09/27 09:17:37;;;;;;;1.13;1.03;;;11.40;97.30;;;;;;5049416;28;20426;-89
2022/09/27 09:20:24;;;;;;;1.43;1.33;;;11.40;97.30;;;;;;5045743;28;20430;-90
2022/09/27 09:23:23;;;;;;;5.90;1.53;;;11.40;97.30;;;;;;5048235;28;21061;-90
2022/09/27 09:25:54;;;;;;;1.10;1.00;;;11.30;97.30;;;;;;5047855;28;20481;-89
2022/09/27 09:28:31;;;;;;;1.00;0.90;;;11.40;97.30;;;;;;5044015;28;20512;-90
2022/09/27 09:31:07;;;;;;;1.00;0.90;;;11.40;97.30;;;;;;5039942;28;20419;-90
2022/09/27 09:33:53;;;;;;;1.00;0.90;;;11.50;97.30;;;;;;5045784;28;20429;-91
2022/09/27 09:36:36;;;;;;;1.40;1.30;;;11.50;97.30;;;;;;5047780;28;20438;-91
2022/09/27 09:39:25;;;;;;;1.00;0.90;;;11.60;97.30;;;;;;5049771;28;20418;-90
2022/09/27 09:42:07;;;;;;;1.00;0.90;;;11.60;97.30;;;;;;5043854;28;20496;-92
2022/09/27 09:44:56;;;;;;;1.00;0.90;;;11.60;97.30;;;;;;5046529;28;20417;-90
2022/09/27 09:47:36;;;;;;;1.00;0.90;;;11.60;97.30;;;;;;5045563;28;20965;-91
2022/09/27 09:50:25;;;;;;;1.50;1.40;;;11.60;97.30;;;;;;5067280;28;20414;-91
2022/09/27 09:52:58;;;;;;;1.10;1.00;;;11.50;97.30;;;;;;5059240;28;20798;-91
2022/09/27 09:55:28;;;;;;;1.00;0.90;;;11.40;97.30;;;;;;5047287;28;20917;-91
2022/09/27 09:58:24;;;;;;;1.00;0.90;;;11.40;97.30;;;;;;5045996;28;20415;-86
2022/09/27 10:00:54;;;;;;;1.00;0.90;;;11.40;97.30;;;;;;5045854;28;20519;-88
2022/09/27 10:03:21;;;;;;;1.23;1.20;;;11.30;97.30;;;;;;5047895;28;20427;-88
2022/09/27 10:05:47;;;;;;;1.00;0.90;;;11.30;97.30;;;;;;5051932;28;20454;-90
2022/09/27 10:08:18;;;;;;;0.90;0.80;;;11.20;97.30;;;;;;5058455;28;20437;-90
2022/09/27 10:10:43;;;;;;;1.00;0.90;;;11.20;97.30;;;;;;5046435;28;20266;-89
2022/09/27 10:13:16;;;;;;;1.03;0.93;;;11.20;97.30;;;;;;5051230;28;20454;-89
2022/09/27 10:15:42;;;;;;;1.00;0.90;;;11.10;97.30;;;;;;5045535;28;20727;-88
2022/09/27 10:18:31;;;;;;;;;;;;;;;;;;;;;
2022/09/27 10:21:05;;;;;;;1.20;1.10;;;11.20;97.30;;;;;;5042701;28;20421;-89
2022/09/27 10:23:31;;;;;;;0.80;0.80;;;11.30;97.30;;;;;;5039682;28;20831;-88
2022/09/27 10:26:03;;;;;;;1.10;1.00;;;11.40;97.30;;;;;;5047157;28;20462;-89
2022/09/27 10:28:37;;;;;;;0.90;0.90;;;11.40;97.30;;;;;;5043910;28;20176;-90
2022/09/27 10:31:06;;;;;;;1.00;0.90;;;11.50;97.30;;;;;;5047853;28;20418;-88
2022/09/27 10:33:35;;;;;;;0.90;0.80;;;11.50;97.30;;;;;;5063580;28;20453;-89
2022/09/27 10:36:01;;;;;;;1.20;1.10;;;11.60;97.30;;;;;;5045783;28;20442;-88
2022/09/27 10:38:28;;;;;;;1.00;0.90;;;11.60;97.30;;;;;;5050767;28;21014;-89
2022/09/27 10:40:59;;;;;;;2.60;1.47;;;11.60;97.30;;;;;;5048993;28;20183;-87
2022/09/27 10:43:29;;;;;;;1.10;1.00;;;11.60;97.30;;;;;;5051947;28;20525;-88
2022/09/27 10:46:05;;;;;;;1.00;0.90;;;11.60;97.30;;;;;;5042550;28;20461;-89
2022/09/27 10:48:31;;;;;;;0.83;0.77;;;11.60;97.30;;;;;;5055466;28;20556;-89
2022/09/27 10:51:05;;;;;;;3.43;2.40;;;11.70;97.30;;;;;;5053648;28;20477;-90
2022/09/27 10:53:32;;;;;;;0.90;0.80;;;11.60;97.30;;;;;;5044145;28;20260;-90
2022/09/27 10:55:59;;;;;;;1.73;1.10;;;11.60;97.30;;;;;;5048932;28;20482;-89
2022/09/27 10:58:29;;;;;;;1.03;0.93;;;11.60;97.30;;;;;;5046253;28;20421;-90
2022/09/27 11:00:59;;;;;;;0.90;0.80;;;11.60;97.30;;;;;;5067692;28;20414;-89
2022/09/27 11:03:27;;;;;;;1.10;1.00;;;11.70;97.30;;;;;;5040340;28;20426;-90
2022/09/27 11:05:54;;;;;;;0.90;0.80;;;11.70;97.30;;;;;;5052134;28;20461;-89
2022/09/27 11:08:22;;;;;;;0.97;0.87;;;11.80;97.30;;;;;;5055187;28;20448;-91
2022/09/27 11:11:13;;;;;;;1.00;0.90;;;11.80;97.30;;;;;;5048544;28;20407;-88
2022/09/27 11:13:40;;;;;;;1.10;1.00;;;11.80;97.30;;;;;;5067210;28;20426;-89
2022/09/27 11:16:17;;;;;;;0.97;0.87;;;11.90;97.30;;;;;;5049770;28;21036;-90
2022/09/27 11:18:59;;;;;;;1.20;1.10;;;12.00;97.30;;;;;;5051546;28;20414;-90
2022/09/27 11:21:41;;;;;;;1.20;1.10;;;12.10;97.30;;;;;;5052560;28;20430;-89
2022/09/27 11:24:09;;;;;;;1.00;0.90;;;12.20;97.30;;;;;;5049816;28;20414;-89
2022/09/27 11:27:04;;;;;;;1.20;1.10;;;12.30;97.30;;;;;;5049901;28;20470;-89
2022/09/27 11:29:39;;;;;;;1.30;1.20;;;12.30;97.30;;;;;;5003205;28;20412;-92
2022/09/27 11:32:42;;;;;;;1.03;0.93;;;12.40;97.30;;;;;;5052905;28;20417;-91
2022/09/27 11:35:32;;;;;;;1.00;0.90;;;12.50;97.30;;;;;;5051832;28;20591;-91
2022/09/27 11:38:17;;;;;;;1.37;1.10;;;12.40;97.30;;;;;;5061762;28;20408;-93
2022/09/27 11:41:16;;;;;;;1.83;1.00;;;12.50;97.30;;;;;;5056480;28;20425;-90
2022/09/27 11:44:20;;;;;;;1.10;1.10;;;12.60;97.30;;;;;;5068681;28;20442;-92
2022/09/27 11:47:08;;;;;;;1.03;0.90;;;12.60;97.30;;;;;;5050958;28;20474;-90
2022/09/27 11:49:53;;;;;;;1.00;0.90;;;12.50;97.30;;;;;;5045142;28;20462;-94
2022/09/27 11:52:38;;;;;;;1.00;0.90;;;12.40;97.30;;;;;;5054123;28;20430;-90
2022/09/27 11:55:18;;;;;;;1.47;1.37;;;12.30;97.30;;;;;;5045075;28;20525;-89
2022/09/27 11:58:02;;;;;;;0.90;0.80;;;12.20;97.30;;;;;;5073046;28;20429;-88
2022/09/27 12:00:51;;;;;;;0.83;0.80;;;12.20;97.30;;;;;;5055495;28;21044;-91
2022/09/27 12:04:00;;;;;;;1.00;0.90;;;12.10;97.30;;;;;;5049331;28;20445;-94
2022/09/27 12:07:03;;;;;;;1.30;1.20;;;12.00;97.30;;;;;;5055226;28;20465;-93
2022/09/27 12:09:36;;;;;;;1.87;1.00;;;11.90;97.30;;;;;;5044639;28;20422;-93
2022/09/27 12:12:08;;;;;;;1.40;1.30;;;11.90;97.30;;;;;;5048199;28;20421;-91
2022/09/27 12:14:43;;;;;;;1.00;0.90;;;11.90;97.30;;;;;;5049418;28;20419;-91
2022/09/27 12:17:21;;;;;;;1.00;0.90;;;11.90;97.30;;;;;;5055215;28;20414;-92
2022/09/27 12:19:58;;;;;;;0.90;0.80;;;11.90;97.30;;;;;;5051126;28;20414;-92
2022/09/27 12:22:36;;;;;;;1.13;1.03;;;12.00;97.30;;;;;;5040700;28;20403;-92
2022/09/27 12:25:03;;;;;;;0.97;0.87;;;12.00;97.30;;;;;;5067253;28;20422;-91
2022/09/27 12:28:08;;;;;;;0.90;0.80;;;12.10;97.30;;;;;;5050937;28;20423;-91
2022/09/27 12:30:38;;;;;;;1.17;1.07;;;12.20;97.30;;;;;;5048762;28;20445;-91
2022/09/27 12:33:21;;;;;;;1.03;0.93;;;12.20;97.30;;;;;;5045811;28;20407;-92
2022/09/27 12:35:52;;;;;;;1.13;1.07;;;12.20;97.30;;;;;;5046472;28;20522;-90
2022/09/27 12:38:41;;;;;;;1.00;0.90;;;12.30;97.30;;;;;;5052524;28;20955;-90
2022/09/27 12:41:11;;;;;;;1.00;0.90;;;12.30;97.30;;;;;;5060591;28;20510;-91
2022/09/27 12:43:43;;;;;;;1.10;1.00;;;12.40;97.30;;;;;;5045240;28;20898;-93
2022/09/27 12:46:30;;;;;;;1.10;1.00;;;12.40;97.30;;;;;;5045054;28;20465;-91
2022/09/27 12:49:05;;;;;;;1.03;1.00;;;12.40;97.30;;;;;;5055077;28;20556;-92
2022/09/27 12:51:40;;;;;;;0.90;0.80;;;12.40;97.30;;;;;;5050717;28;20429;-89
2022/09/27 12:54:11;;;;;;;0.90;0.90;;;12.40;97.30;;;;;;5049404;28;20431;-90
2022/09/27 12:56:56;;;;;;;6.30;1.93;;;12.40;97.30;;;;;;5061356;28;21002;-91
2022/09/27 12:59:49;;;;;;;1.40;1.30;;;12.40;97.30;;;;;;5061204;28;20422;-91
2022/09/27 13:02:48;;;;;;;1.20;1.10;;;12.40;97.30;;;;;;5050300;28;20544;-90
2022/09/27 13:05:43;;;;;;;1.10;1.00;;;12.50;97.30;;;;;;5047931;28;20462;-90
2022/09/27 13:08:33;;;;;;;1.17;0.90;;;12.60;97.30;;;;;;5048052;28;20450;-91
2022/09/27 13:11:22;;;;;;;2.20;1.93;;;12.70;97.30;;;;;;5044100;28;20995;-90
2022/09/27 13:13:49;;;;;;;0.70;0.70;;;12.70;97.30;;;;;;5063411;28;20911;-91
2022/09/27 13:16:14;;;;;;;1.07;0.97;;;12.80;97.30;;;;;;5044027;28;20453;-90
2022/09/27 13:18:46;;;;;;;1.20;1.10;;;12.90;97.30;;;;;;5046210;28;20422;-92
2022/09/27 13:21:50;;;;;;;1.17;1.07;;;12.90;97.30;;;;;;5055630;28;20183;-93
2022/09/27 13:24:48;;;;;;;1.30;1.20;;;12.90;97.30;;;;;;5059851;28;20423;-91
2022/09/27 13:27:39;;;;;;;1.10;1.00;;;12.90;97.30;;;;;;5000114;28;20992;-92
2022/09/27 13:30:07;;;;;;;2.10;0.90;;;12.90;97.30;;;;;;5037945;28;20426;-91
2022/09/27 13:32:35;;;;;;;1.10;1.00;;;12.90;97.30;;;;;;5047808;28;20515;-91